This is the latest recevied weather packets stored in our database for station/object IW1CBG-3. If no packets are shown the sender has not sent any weather packets the latest 10 day(s).
| Time | Temp. | Humidity | Pressure | Rain* | Wind** | Luminosity | Snow |
|---|---|---|---|---|---|---|---|
| 1777211434 | 17.22° C | 74% | 1027.9 hPa | 0 mm | - | - | - |
| 1777210833 | 16.67° C | 76% | 1027.9 hPa | 0 mm | - | - | - |
| 1777210234 | 16.11° C | 77% | 1028.2 hPa | 0 mm | - | - | - |
| 1777209633 | 16.11° C | 77% | 1028.3 hPa | 0 mm | - | - | - |
| 1777209033 | 15.56° C | 79% | 1028.5 hPa | 0 mm | - | - | - |
| 1777208433 | 16.11° C | 78% | 1028.6 hPa | 0 mm | - | - | - |
| 1777207833 | 16.11° C | 78% | 1028.4 hPa | 0 mm | - | - | - |
| 1777207233 | 16.11° C | 78% | 1028.6 hPa | 0 mm | - | - | - |
| 1777206634 | 16.11° C | 79% | 1028.6 hPa | 0 mm | - | - | - |
| 1777206033 | 15.56° C | 79% | 1028.8 hPa | 0 mm | - | - | - |
| 1777205434 | 15.56° C | 79% | 1028.7 hPa | 0 mm | - | - | - |
| 1777204833 | 15.56° C | 79% | 1028.5 hPa | 0 mm | - | - | - |
| 1777204234 | 15.56° C | 79% | 1028.7 hPa | 0 mm | - | - | - |
| 1777203634 | 15.56° C | 80% | 1028.7 hPa | 0 mm | - | - | - |
| 1777203034 | 16.11° C | 77% | 1028.4 hPa | 0 mm | - | - | - |
| 1777202434 | 16.11° C | 76% | 1028.5 hPa | 0 mm | - | - | - |
| 1777201834 | 16.11° C | 76% | 1028.2 hPa | 0 mm | - | - | - |
| 1777201234 | 16.67° C | 75% | 1028.3 hPa | 0 mm | - | - | - |
| 1777200634 | 16.67° C | 75% | 1028.1 hPa | 0 mm | - | - | - |
| 1777200033 | 16.67° C | 74% | 1028 hPa | 0 mm | - | - | - |
| 1777199434 | 16.67° C | 74% | 1028.5 hPa | 0 mm | - | - | - |
| 1777198833 | 17.22° C | 72% | 1028.2 hPa | 0 mm | - | - | - |
| 1777198234 | 16.67° C | 73% | 1028.1 hPa | 0 mm | - | - | - |
| 1777197634 | 16.67° C | 73% | 1028.3 hPa | 0 mm | - | - | - |
| 1777197034 | 16.11° C | 75% | 1028.5 hPa | 0 mm | - | - | - |
* Rain latest hour (hover to see other rain measurements)
** Current wind speed in m/s (hover to see current wind gust speed)